createdAt,value
2017-08-02T00:01:44.724Z,23.45
2017-08-02T00:04:12.652Z,23.46
2017-08-02T00:06:40.970Z,23.39
2017-08-02T00:09:08.947Z,23.41
2017-08-02T00:11:36.861Z,23.40
2017-08-02T00:14:04.808Z,23.22
2017-08-02T00:16:32.752Z,23.20
2017-08-02T00:19:00.993Z,23.16
2017-08-02T00:21:29.368Z,23.28
2017-08-02T00:23:57.695Z,23.25
2017-08-02T00:26:25.648Z,23.18
2017-08-02T00:28:53.568Z,23.20
2017-08-02T00:31:21.490Z,23.14
2017-08-02T00:33:49.401Z,23.20
2017-08-02T00:36:17.686Z,23.14
2017-08-02T00:38:45.891Z,23.13
2017-08-02T00:41:13.801Z,23.16
2017-08-02T00:43:41.735Z,23.16
2017-08-02T00:46:09.648Z,23.05
2017-08-02T00:48:37.582Z,23.03
2017-08-02T00:51:05.487Z,22.99
2017-08-02T00:53:33.708Z,23.02
2017-08-02T00:56:01.628Z,23.10
2017-08-02T00:58:29.544Z,23.01
2017-08-02T01:00:57.455Z,23.01
2017-08-02T01:03:25.385Z,22.95
2017-08-02T01:05:53.288Z,22.86
2017-08-02T01:08:21.482Z,22.88
2017-08-02T01:10:49.392Z,22.88
2017-08-02T01:13:17.987Z,22.95
2017-08-02T01:15:45.894Z,22.86
2017-08-02T01:18:13.802Z,22.73
2017-08-02T01:20:42.113Z,22.75
2017-08-02T01:23:10.021Z,22.79
2017-08-02T01:25:37.946Z,22.75
2017-08-02T01:28:05.856Z,22.69
2017-08-02T01:30:33.775Z,22.64
2017-08-02T01:33:01.698Z,22.63
2017-08-02T01:35:29.771Z,22.79
2017-08-02T01:37:57.981Z,22.79
2017-08-02T01:40:25.899Z,22.90
2017-08-02T01:42:53.818Z,22.91
2017-08-02T01:45:21.806Z,22.93
2017-08-02T01:47:49.741Z,22.98
2017-08-02T01:50:18.043Z,22.98
2017-08-02T01:52:45.968Z,22.92
2017-08-02T01:55:14.623Z,22.88
2017-08-02T01:57:42.554Z,22.75
2017-08-02T02:00:10.482Z,22.53
2017-08-02T02:02:38.778Z,22.41
2017-08-02T02:05:06.697Z,22.39
2017-08-02T02:07:34.614Z,22.35
2017-08-02T02:10:02.573Z,22.34
2017-08-02T02:12:30.483Z,22.16
2017-08-02T02:14:58.402Z,22.04
2017-08-02T02:17:26.328Z,22.07
2017-08-02T02:19:54.259Z,22.04
2017-08-02T02:22:22.190Z,22.00
2017-08-02T02:24:50.112Z,22.01
2017-08-02T02:27:18.422Z,21.94
2017-08-02T02:29:46.554Z,21.88
2017-08-02T02:32:14.873Z,21.85
2017-08-02T02:34:42.797Z,21.83
2017-08-02T02:37:10.717Z,21.85
2017-08-02T02:39:38.632Z,21.85
2017-08-02T02:42:06.556Z,21.77
2017-08-02T02:44:34.473Z,21.81
2017-08-02T02:47:02.394Z,21.74
2017-08-02T02:49:30.412Z,21.75
2017-08-02T02:51:58.353Z,21.67
2017-08-02T02:54:26.259Z,21.66
2017-08-02T02:56:54.722Z,21.73
2017-08-02T02:59:22.651Z,21.76
2017-08-02T03:01:50.671Z,21.87
2017-08-02T03:04:18.616Z,21.78
2017-08-02T03:06:46.538Z,21.81
2017-08-02T03:09:14.481Z,21.79
2017-08-02T03:11:42.426Z,21.77
2017-08-02T03:14:10.351Z,21.77
2017-08-02T03:16:38.263Z,21.79
2017-08-02T03:19:06.196Z,21.71
2017-08-02T03:21:34.105Z,21.78
2017-08-02T03:24:02.194Z,21.72
2017-08-02T03:26:30.499Z,21.66
2017-08-02T03:28:58.409Z,21.68
2017-08-02T03:31:26.326Z,21.61
2017-08-02T03:33:54.251Z,21.56
2017-08-02T03:36:22.222Z,21.60
2017-08-02T03:38:50.137Z,21.67
2017-08-02T03:41:18.292Z,21.71
2017-08-02T03:43:46.200Z,21.66
2017-08-02T03:46:14.103Z,21.65
2017-08-02T03:48:42.113Z,21.67
2017-08-02T03:51:10.436Z,21.68
2017-08-02T03:53:38.363Z,21.68
2017-08-02T03:56:06.674Z,21.75
2017-08-02T03:58:34.615Z,21.76
2017-08-02T04:01:02.546Z,21.90
2017-08-02T04:03:30.480Z,21.82
2017-08-02T04:05:58.392Z,21.81
2017-08-02T04:08:26.330Z,21.88
2017-08-02T04:10:54.256Z,21.97
2017-08-02T04:13:22.169Z,22.03
2017-08-02T04:15:50.103Z,22.05
2017-08-02T04:18:18.020Z,22.16
2017-08-02T04:20:45.943Z,22.23
2017-08-02T04:23:13.860Z,22.36
2017-08-02T04:25:41.781Z,22.45
2017-08-02T04:28:09.701Z,22.57
2017-08-02T04:30:37.780Z,22.54
2017-08-02T04:33:05.693Z,22.63
2017-08-02T04:35:33.616Z,22.67
2017-08-02T04:38:01.547Z,22.58
2017-08-02T04:40:29.472Z,22.60
2017-08-02T04:42:57.833Z,22.49
2017-08-02T04:45:25.757Z,22.47
2017-08-02T04:47:53.684Z,22.58
2017-08-02T04:50:21.999Z,22.59
2017-08-02T04:52:49.930Z,22.68
2017-08-02T04:55:18.243Z,22.80
2017-08-02T04:57:46.159Z,22.77
2017-08-02T05:00:14.122Z,22.94
2017-08-02T05:02:42.047Z,23.08
2017-08-02T05:05:09.972Z,22.99
2017-08-02T05:07:37.891Z,23.23
2017-08-02T05:10:05.919Z,23.87
2017-08-02T05:12:34.121Z,24.98
2017-08-02T05:15:02.050Z,25.94
2017-08-02T05:17:29.964Z,26.73
2017-08-02T05:19:58.147Z,27.27
2017-08-02T05:22:26.053Z,27.04
2017-08-02T05:24:53.964Z,26.71
2017-08-02T05:27:21.897Z,27.09
2017-08-02T05:29:49.814Z,27.36
2017-08-02T05:32:17.728Z,27.74
2017-08-02T05:34:45.644Z,27.77
2017-08-02T05:37:13.566Z,28.51
2017-08-02T05:39:41.535Z,28.85
2017-08-02T05:42:09.471Z,29.13
2017-08-02T05:44:37.394Z,29.78
2017-08-02T05:47:05.321Z,30.68
2017-08-02T05:49:33.238Z,31.38
2017-08-02T05:52:01.841Z,31.49
2017-08-02T05:54:29.742Z,32.43
2017-08-02T05:56:57.667Z,32.30
2017-08-02T05:59:25.600Z,32.42
2017-08-02T06:01:53.526Z,32.73
2017-08-02T06:04:21.435Z,34.03
2017-08-02T06:06:49.351Z,33.91
2017-08-02T06:09:17.277Z,34.36
2017-08-02T06:11:45.209Z,35.40
2017-08-02T06:14:13.121Z,35.73
2017-08-02T06:16:41.022Z,35.31
2017-08-02T06:19:08.944Z,35.67
2017-08-02T06:21:36.884Z,35.27
2017-08-02T06:24:04.804Z,34.82
2017-08-02T06:26:32.734Z,33.74
2017-08-02T06:29:00.647Z,33.32
2017-08-02T06:31:28.979Z,31.83
2017-08-02T06:33:56.910Z,31.49
2017-08-02T06:36:25.245Z,31.68
2017-08-02T06:38:53.173Z,32.50
2017-08-02T06:41:21.117Z,32.11
2017-08-02T06:43:49.441Z,32.07
2017-08-02T06:46:17.560Z,31.33
2017-08-02T06:48:45.880Z,30.93
2017-08-02T06:51:13.799Z,30.34
2017-08-02T06:53:41.719Z,29.94
2017-08-02T06:56:09.626Z,29.60
2017-08-02T06:58:37.564Z,29.19
2017-08-02T07:01:05.484Z,29.25
2017-08-02T07:03:33.821Z,28.78
2017-08-02T07:06:01.818Z,28.50
2017-08-02T07:08:29.735Z,28.62
2017-08-02T07:10:57.644Z,28.49
2017-08-02T07:13:25.562Z,28.57
2017-08-02T07:15:53.490Z,29.19
2017-08-02T07:18:21.411Z,30.04
2017-08-02T07:20:49.329Z,30.57
2017-08-02T07:23:17.613Z,30.73
2017-08-02T07:25:45.536Z,31.10
2017-08-02T07:28:13.561Z,32.31
2017-08-02T07:30:41.901Z,32.63
2017-08-02T07:33:09.844Z,33.62
2017-08-02T07:35:37.865Z,34.16
2017-08-02T07:38:05.778Z,35.21
2017-08-02T07:40:33.719Z,35.06
2017-08-02T07:43:02.037Z,34.64
2017-08-02T07:45:29.965Z,34.46
2017-08-02T07:47:58.276Z,34.60
2017-08-02T07:50:26.398Z,33.92
2017-08-02T07:52:54.306Z,34.40
2017-08-02T07:55:22.231Z,34.28
2017-08-02T07:57:50.152Z,33.97
2017-08-02T08:00:18.060Z,33.85
2017-08-02T08:02:45.984Z,33.79
2017-08-02T08:05:13.908Z,34.19
2017-08-02T08:07:41.995Z,34.70
2017-08-02T08:10:10.615Z,35.37
2017-08-02T08:12:38.565Z,35.71
2017-08-02T08:15:06.513Z,35.84
2017-08-02T08:17:34.415Z,36.65
2017-08-02T08:20:02.345Z,37.22
2017-08-02T08:22:30.254Z,37.81
2017-08-02T08:24:58.186Z,37.75
2017-08-02T08:27:26.153Z,37.37
2017-08-02T08:29:54.895Z,36.51
2017-08-02T08:32:22.856Z,35.69
2017-08-02T08:34:50.890Z,35.44
2017-08-02T08:37:19.225Z,35.88
2017-08-02T08:39:47.143Z,35.15
2017-08-02T08:42:15.468Z,34.20
2017-08-02T08:44:44.649Z,33.25
2017-08-02T08:47:12.583Z,33.03
2017-08-02T08:49:40.897Z,32.59
2017-08-02T08:52:08.825Z,33.11
2017-08-02T08:54:36.728Z,33.83
2017-08-02T08:57:05.055Z,34.82
2017-08-02T08:59:32.972Z,35.53
2017-08-02T09:02:00.885Z,35.89
2017-08-02T09:04:28.819Z,35.13
2017-08-02T09:06:56.725Z,34.78
2017-08-02T09:09:24.720Z,35.06
2017-08-02T09:11:53.022Z,34.27
2017-08-02T09:14:20.949Z,32.60
2017-08-02T09:16:48.856Z,33.30
2017-08-02T09:19:16.775Z,34.72
2017-08-02T09:21:44.694Z,36.01
2017-08-02T09:24:12.931Z,36.65
2017-08-02T09:26:40.860Z,37.71
2017-08-02T09:29:08.776Z,38.82
2017-08-02T09:31:36.699Z,39.73
2017-08-02T09:34:04.716Z,38.44
2017-08-02T09:36:32.648Z,37.75
2017-08-02T09:39:00.567Z,36.95
2017-08-02T09:41:28.898Z,36.75
2017-08-02T09:43:56.799Z,36.72
2017-08-02T09:46:24.728Z,36.65
2017-08-02T09:48:52.643Z,36.61
2017-08-02T09:51:21.081Z,35.81
2017-08-02T09:53:48.990Z,36.78
2017-08-02T09:56:17.300Z,37.14
2017-08-02T09:58:45.232Z,38.56
2017-08-02T10:01:13.553Z,38.80
2017-08-02T10:03:41.467Z,38.21
2017-08-02T10:06:09.376Z,37.22
2017-08-02T10:08:37.291Z,36.15
2017-08-02T10:11:05.207Z,35.66
2017-08-02T10:13:33.864Z,35.08
2017-08-02T10:16:01.787Z,34.21
2017-08-02T10:18:29.693Z,33.64
2017-08-02T10:20:57.625Z,32.59
2017-08-02T10:23:25.554Z,31.94
2017-08-02T10:25:53.878Z,31.79
2017-08-02T10:28:21.800Z,31.56
2017-08-02T10:30:50.120Z,31.53
2017-08-02T10:33:18.036Z,31.14
2017-08-02T10:35:45.984Z,30.63
2017-08-02T10:38:13.895Z,29.72
2017-08-02T10:40:42.360Z,29.41
2017-08-02T10:43:10.688Z,29.99
2017-08-02T10:45:38.606Z,31.11
2017-08-02T10:48:06.919Z,31.38
2017-08-02T10:50:34.833Z,31.11
2017-08-02T10:53:02.751Z,31.22
2017-08-02T10:55:30.664Z,31.71
2017-08-02T10:57:58.604Z,31.36
2017-08-02T11:00:26.857Z,31.63
2017-08-02T11:02:54.772Z,31.88
2017-08-02T11:05:22.701Z,31.67
2017-08-02T11:07:50.835Z,31.79
2017-08-02T11:10:18.807Z,32.24
2017-08-02T11:12:46.736Z,31.85
2017-08-02T11:15:14.661Z,31.39
2017-08-02T11:17:42.962Z,31.33
2017-08-02T11:20:11.720Z,31.91
2017-08-02T11:22:40.128Z,32.38
2017-08-02T11:25:08.061Z,33.00
2017-08-02T11:27:35.988Z,32.40
2017-08-02T11:30:04.000Z,32.92
2017-08-02T11:32:31.925Z,33.09
2017-08-02T11:35:00.239Z,32.75
2017-08-02T11:37:28.167Z,32.72
2017-08-02T11:39:56.084Z,32.24
2017-08-02T11:42:24.037Z,31.82
2017-08-02T11:44:51.934Z,31.62
2017-08-02T11:47:20.254Z,31.32
2017-08-02T11:49:48.168Z,31.26
2017-08-02T11:52:16.223Z,31.08
2017-08-02T11:54:44.145Z,30.40
2017-08-02T11:57:12.065Z,30.26
2017-08-02T11:59:40.200Z,30.37
2017-08-02T12:02:08.115Z,30.34
2017-08-02T12:04:36.041Z,30.72
2017-08-02T12:07:03.949Z,31.07
2017-08-02T12:09:31.878Z,31.16
2017-08-02T12:11:59.841Z,31.02
2017-08-02T12:14:27.767Z,31.03
2017-08-02T12:16:55.673Z,31.22
2017-08-02T12:19:23.801Z,31.11
2017-08-02T12:21:51.710Z,31.30
2017-08-02T12:24:19.624Z,31.11
2017-08-02T12:26:47.571Z,31.13
2017-08-02T12:29:15.485Z,30.81
2017-08-02T12:31:43.415Z,30.78
2017-08-02T12:34:11.325Z,30.38
2017-08-02T12:36:40.014Z,30.73
2017-08-02T12:39:07.925Z,30.62
2017-08-02T12:41:35.840Z,30.80
2017-08-02T12:44:03.768Z,30.95
2017-08-02T12:46:31.780Z,31.20
2017-08-02T12:48:59.696Z,31.05
2017-08-02T12:51:27.599Z,31.36
2017-08-02T12:53:55.512Z,31.52
2017-08-02T12:56:23.424Z,30.90
2017-08-02T12:58:51.436Z,30.82
2017-08-02T13:01:19.756Z,30.70
2017-08-02T13:03:47.830Z,31.14
2017-08-02T13:06:15.754Z,31.11
2017-08-02T13:08:44.064Z,31.41
2017-08-02T13:11:11.983Z,31.58
2017-08-02T13:13:39.890Z,31.31
2017-08-02T13:16:07.825Z,31.57
2017-08-02T13:18:35.729Z,31.21
2017-08-02T13:21:03.675Z,30.55
2017-08-02T13:23:31.981Z,30.60
2017-08-02T13:25:59.910Z,30.75
2017-08-02T13:28:27.837Z,30.79
2017-08-02T13:30:55.943Z,30.76
2017-08-02T13:33:23.870Z,30.56
2017-08-02T13:35:51.800Z,30.68
2017-08-02T13:38:20.125Z,30.73
2017-08-02T13:40:48.030Z,30.93
2017-08-02T13:43:15.959Z,30.95
2017-08-02T13:45:43.872Z,31.01
2017-08-02T13:48:11.799Z,31.05
2017-08-02T13:50:39.738Z,31.00
2017-08-02T13:53:07.651Z,31.02
2017-08-02T13:55:35.564Z,31.40
2017-08-02T13:58:04.016Z,31.18
2017-08-02T14:00:31.946Z,31.03
2017-08-02T14:03:00.229Z,30.65
2017-08-02T14:05:28.154Z,30.42
2017-08-02T14:07:56.527Z,30.60
2017-08-02T14:10:24.851Z,30.68
2017-08-02T14:12:52.764Z,30.74
2017-08-02T14:15:20.676Z,30.56
2017-08-02T14:17:48.577Z,30.01
2017-08-02T14:20:16.677Z,29.64
2017-08-02T14:22:44.584Z,29.75
2017-08-02T14:25:12.501Z,29.54
2017-08-02T14:27:40.433Z,29.13
2017-08-02T14:30:08.353Z,29.16
2017-08-02T14:32:36.743Z,29.19
2017-08-02T14:35:05.089Z,29.53
2017-08-02T14:37:33.007Z,29.72
2017-08-02T14:40:01.038Z,29.62
2017-08-02T14:42:28.965Z,29.53
2017-08-02T14:44:56.889Z,29.43
2017-08-02T14:47:25.573Z,29.66
2017-08-02T14:49:53.492Z,29.32
2017-08-02T14:52:21.418Z,29.25
2017-08-02T14:54:49.745Z,29.32
2017-08-02T14:57:17.699Z,29.18
2017-08-02T14:59:45.614Z,29.19
2017-08-02T15:02:13.533Z,29.25
2017-08-02T15:04:41.456Z,29.51
2017-08-02T15:07:09.384Z,29.16
2017-08-02T15:09:37.445Z,29.34
2017-08-02T15:12:05.352Z,29.36
2017-08-02T15:14:33.262Z,29.33
2017-08-02T15:17:01.200Z,29.45
2017-08-02T15:19:29.198Z,29.58
2017-08-02T15:21:57.503Z,29.63
2017-08-02T15:24:25.528Z,29.64
2017-08-02T15:26:53.444Z,29.39
2017-08-02T15:29:21.362Z,29.16
2017-08-02T15:31:49.735Z,29.02
2017-08-02T15:34:17.659Z,29.05
2017-08-02T15:36:45.600Z,29.05
2017-08-02T15:39:13.903Z,29.08
2017-08-02T15:41:41.980Z,29.11
2017-08-02T15:44:09.884Z,29.27
2017-08-02T15:46:37.791Z,29.33
2017-08-02T15:49:05.709Z,29.46
2017-08-02T15:51:33.629Z,29.39
2017-08-02T15:54:01.557Z,29.33
2017-08-02T15:56:29.471Z,29.31
2017-08-02T15:58:57.390Z,29.27
2017-08-02T16:01:25.288Z,29.29
2017-08-02T16:03:53.612Z,29.26
2017-08-02T16:08:56.308Z,29.21
2017-08-02T16:11:24.234Z,29.16
2017-08-02T16:13:52.558Z,29.18
2017-08-02T16:16:20.479Z,29.15
2017-08-02T16:18:49.025Z,29.15
2017-08-02T16:21:16.932Z,29.09
2017-08-02T16:23:44.882Z,29.14
2017-08-02T16:26:12.816Z,29.06
2017-08-02T16:28:40.722Z,29.10
2017-08-02T16:31:08.665Z,29.04
2017-08-02T16:33:36.586Z,28.66
2017-08-02T16:36:04.521Z,28.66
2017-08-02T16:39:38.232Z,28.46
2017-08-02T16:42:06.159Z,28.12
2017-08-02T16:44:34.084Z,27.96
2017-08-02T16:47:02.559Z,27.98
2017-08-02T16:49:30.475Z,28.03
2017-08-02T16:51:58.378Z,28.13
2017-08-02T16:54:26.598Z,28.17
2017-08-02T16:56:54.527Z,28.42
2017-08-02T16:59:22.463Z,28.60
2017-08-02T17:01:50.405Z,28.43
2017-08-02T17:04:18.323Z,28.51
2017-08-02T17:06:46.243Z,28.42
2017-08-02T17:09:14.386Z,28.27
2017-08-02T17:11:42.309Z,28.26
2017-08-02T17:14:10.372Z,27.93
2017-08-02T17:16:38.310Z,27.60
2017-08-02T17:19:06.644Z,27.58
2017-08-02T17:21:34.587Z,27.59
2017-08-02T17:24:02.501Z,27.50
2017-08-02T17:26:30.431Z,27.51
2017-08-02T17:28:58.352Z,27.40
2017-08-02T17:31:26.559Z,27.28
2017-08-02T17:33:54.488Z,27.26
2017-08-02T17:36:22.510Z,27.33
2017-08-02T17:38:50.444Z,27.19
2017-08-02T17:41:19.015Z,27.04
2017-08-02T17:43:46.923Z,27.14
2017-08-02T17:46:14.840Z,27.21
2017-08-02T17:48:42.759Z,27.13
2017-08-02T17:51:10.668Z,27.12
2017-08-02T17:53:38.596Z,27.09
2017-08-02T17:56:06.521Z,27.05
2017-08-02T17:58:34.796Z,27.06
2017-08-02T18:01:02.727Z,27.01
2017-08-02T18:03:30.648Z,27.03
2017-08-02T18:05:58.960Z,27.18
2017-08-02T18:08:26.878Z,27.29
2017-08-02T18:10:54.812Z,27.31
2017-08-02T18:13:22.728Z,27.26
2017-08-02T18:15:51.058Z,27.10
2017-08-02T18:18:18.989Z,26.53
2017-08-02T18:20:46.903Z,26.20
2017-08-02T18:23:14.814Z,26.00
2017-08-02T18:25:43.174Z,26.00
2017-08-02T18:28:11.107Z,25.94
2017-08-02T18:30:39.037Z,25.96
2017-08-02T18:33:07.343Z,25.89
2017-08-02T18:35:35.475Z,25.92
2017-08-02T18:38:03.389Z,25.98
2017-08-02T18:40:31.316Z,26.00
2017-08-02T18:42:59.244Z,25.96
2017-08-02T18:45:27.154Z,25.76
2017-08-02T18:47:55.573Z,25.67
2017-08-02T18:50:23.483Z,25.77
2017-08-02T18:52:51.590Z,25.56
2017-08-02T18:55:19.524Z,25.47
2017-08-02T18:57:47.426Z,25.36
2017-08-02T19:00:15.770Z,25.47
2017-08-02T19:02:43.687Z,25.45
2017-08-02T19:05:11.615Z,25.50
2017-08-02T19:07:39.538Z,25.37
2017-08-02T19:10:07.506Z,25.50
2017-08-02T19:12:35.421Z,25.42
2017-08-02T19:15:03.497Z,25.39
2017-08-02T19:17:31.416Z,25.27
2017-08-02T19:19:59.343Z,25.02
2017-08-02T19:22:27.262Z,25.08
2017-08-02T19:24:55.173Z,25.16
2017-08-02T19:27:23.247Z,25.23
2017-08-02T19:29:51.164Z,25.27
2017-08-02T19:32:19.086Z,25.18
2017-08-02T19:34:47.050Z,25.14
2017-08-02T19:37:14.969Z,25.05
2017-08-02T19:39:42.887Z,24.88
2017-08-02T19:42:10.816Z,24.80
2017-08-02T19:44:38.778Z,24.81
2017-08-02T19:47:06.689Z,24.83
2017-08-02T19:49:34.611Z,24.86
2017-08-02T19:52:02.539Z,24.78
2017-08-02T19:54:30.597Z,24.78
2017-08-02T19:56:58.575Z,24.66
2017-08-02T19:59:26.483Z,24.69
2017-08-02T20:01:54.421Z,24.64
2017-08-02T20:04:22.749Z,24.57
2017-08-02T20:06:50.861Z,24.54
2017-08-02T20:09:18.770Z,24.36
2017-08-02T20:11:46.673Z,24.28
2017-08-02T20:14:14.600Z,24.14
2017-08-02T20:16:42.502Z,24.21
2017-08-02T20:19:10.438Z,24.18
2017-08-02T20:21:38.344Z,24.37
2017-08-02T20:24:06.394Z,24.17
2017-08-02T20:26:34.312Z,24.13
2017-08-02T20:29:02.226Z,24.17
2017-08-02T20:31:30.148Z,24.11
2017-08-02T20:33:58.055Z,24.03
2017-08-02T20:36:25.993Z,24.11
2017-08-02T20:38:54.316Z,24.05
2017-08-02T20:41:22.284Z,24.01
2017-08-02T20:43:50.182Z,24.01
2017-08-02T20:46:18.271Z,23.98
2017-08-02T20:48:46.192Z,24.04
2017-08-02T20:51:14.116Z,24.02
2017-08-02T20:53:42.034Z,23.99
2017-08-02T20:56:09.956Z,24.02
2017-08-02T20:58:37.874Z,23.94
2017-08-02T21:01:05.798Z,23.82
2017-08-02T21:03:34.273Z,23.80
2017-08-02T21:06:02.362Z,23.85
2017-08-02T21:08:30.673Z,23.79
2017-08-02T21:10:58.591Z,23.81
2017-08-02T21:13:26.503Z,23.73
2017-08-02T21:15:54.540Z,23.81
2017-08-02T21:18:22.465Z,23.89
2017-08-02T21:20:50.376Z,24.06
2017-08-02T21:23:18.700Z,23.95
2017-08-02T21:25:46.626Z,23.85
2017-08-02T21:28:14.588Z,23.78
2017-08-02T21:30:42.902Z,23.83
2017-08-02T21:33:10.834Z,23.93
2017-08-02T21:35:39.159Z,23.96
2017-08-02T21:38:07.090Z,23.95
2017-08-02T21:40:35.404Z,23.98
2017-08-02T21:43:03.670Z,24.04
2017-08-02T21:45:31.597Z,24.04
2017-08-02T21:47:59.512Z,23.94
2017-08-02T21:50:27.437Z,23.99
2017-08-02T21:52:55.748Z,24.01
2017-08-02T21:55:23.673Z,23.97
2017-08-02T21:57:51.614Z,24.05
2017-08-02T22:00:19.530Z,24.02
2017-08-02T22:02:47.906Z,23.88
2017-08-02T22:05:16.233Z,23.80
2017-08-02T22:07:44.157Z,23.66
2017-08-02T22:10:13.076Z,23.74
2017-08-02T22:12:41.006Z,23.85
2017-08-02T22:15:08.937Z,23.95
2017-08-02T22:17:36.852Z,24.11
2017-08-02T22:20:05.276Z,24.03
2017-08-02T22:22:33.196Z,23.85
2017-08-02T22:25:01.491Z,23.66
2017-08-02T22:27:29.804Z,23.55
2017-08-02T22:29:57.714Z,23.43
2017-08-02T22:32:25.634Z,23.52
2017-08-02T22:34:53.534Z,23.65
2017-08-02T22:37:21.641Z,23.77
2017-08-02T22:39:49.957Z,23.76
2017-08-02T22:42:17.877Z,23.67
2017-08-02T22:44:45.810Z,23.68
2017-08-02T22:47:13.732Z,23.78
2017-08-02T22:49:41.655Z,23.69
2017-08-02T22:52:09.574Z,23.75
2017-08-02T22:54:37.501Z,23.78
2017-08-02T22:57:05.411Z,23.76
2017-08-02T22:59:33.665Z,23.91
2017-08-02T23:02:01.969Z,23.82
2017-08-02T23:04:29.882Z,23.82
2017-08-02T23:06:58.352Z,23.81
2017-08-02T23:09:26.269Z,23.90
2017-08-02T23:11:54.978Z,23.80
2017-08-02T23:14:22.918Z,23.58
2017-08-02T23:16:51.236Z,23.65
2017-08-02T23:19:19.150Z,23.59
2017-08-02T23:21:47.226Z,23.55
2017-08-02T23:24:15.146Z,23.59
2017-08-02T23:26:43.060Z,23.63
2017-08-02T23:29:10.983Z,23.71
2017-08-02T23:31:38.896Z,23.89
2017-08-02T23:34:06.829Z,23.95
2017-08-02T23:36:34.750Z,23.97
2017-08-02T23:39:03.072Z,24.04
2017-08-02T23:41:30.988Z,24.12
2017-08-02T23:43:58.921Z,24.10
2017-08-02T23:46:26.835Z,24.15
2017-08-02T23:48:55.167Z,24.02
2017-08-02T23:51:23.090Z,23.81
2017-08-02T23:53:51.424Z,23.54
2017-08-02T23:56:19.343Z,23.47
2017-08-02T23:58:47.661Z,23.49
